Sant Martí Sacalm





Hora UTC 19:55
Temperatura 18.4 ºC
Humitat 87.8 %
Pressió 1015.0 hPa
Pluja 0.8 mm
Velocitat vent 2.7 km/h
Direcció vent E
Radiació solar 0.1 W/m²

Dades diàries 2020-08-03



Hora UTC (hivern +1h; estiu +2h)
Temperatura (ºC) Humitat (%) Pressió (hPa) Velocitat vent (km/h) Precipitació (mm) Radiació solar (W/m²)
Hora UTC Aire Humitat Pressió Vel. Dir. Vel. Max Dir. Intent. màx 5 min. Rad. Sol.
00:05 18.9 84.9 1015.6 7.1 SSW 7.1 SSW 0.0 0.1
00:10 18.8 85.7 1015.6 5.7 SW 8.5 SW 0.0 0.1
00:15 18.9 85.5 1015.6 2.2 SW 5.3 SSW 0.0 0.1
00:20 18.8 86.5 1015.6 1.6 NNW 4.2 NNE 0.0 0.1
00:25 18.6 86.9 1015.5 2.0 SSW 4.2 SW 0.0 0.1
00:30 18.7 87.8 1015.5 3.4 SSW 6.4 SSW 0.0 0.1
00:35 18.8 88.3 1015.5 5.8 SSW 8.8 SW 0.0 0.1
00:40 19.0 88.5 1015.5 7.1 SSW 10.6 SSW 0.0 0.1
00:45 19.0 87.9 1015.5 6.3 SW 10.3 SW 0.0 0.1
00:50 18.8 86.4 1015.4 8.4 SW 12.4 SW 0.0 0.1
00:55 18.8 86.5 1015.4 7.3 SW 10.3 WSW 0.0 0.1
01:00 18.7 87.1 1015.3 5.5 SW 9.2 SW 0.0 0.1
01:05 18.7 86.3 1015.2 5.8 SSW 7.8 SSW 0.0 0.1
01:10 18.6 86.7 1015.1 6.9 SW 9.5 SSW 0.0 0.1
01:15 18.6 87.1 1015.1 5.8 SW 9.2 SW 0.0 0.1
01:20 18.6 86.1 1014.9 5.3 SW 6.7 SW 0.0 0.1
01:25 18.5 86.1 1014.9 7.0 SW 9.9 SW 0.0 0.1
01:30 18.5 85.9 1014.7 7.7 SW 10.6 WSW 0.0 0.1
01:35 18.5 85.0 1014.6 8.6 SW 10.6 SW 0.0 0.1
01:40 18.4 85.9 1014.6 7.1 SSW 10.6 SW 0.0 0.1
01:45 18.3 87.3 1014.5 8.4 SSW 12.0 SW 0.0 0.1
01:50 18.5 86.8 1014.4 10.4 SSW 14.1 SSW 0.0 0.1
01:55 18.6 84.3 1014.5 12.8 SW 17.7 SSW 0.0 0.1
02:00 18.7 81.3 1014.6 11.3 SW 17.3 SSW 0.0 0.1
02:05 18.7 80.1 1014.6 14.5 SW 18.7 SW 0.0 0.1
02:10 18.7 79.4 1014.5 15.6 SW 21.2 SW 0.0 0.1
02:15 18.6 80.3 1014.5 16.6 SW 24.0 SSW 0.0 0.1
02:20 18.6 79.2 1014.5 17.3 SSW 23.3 SSW 0.0 0.1
02:25 18.5 78.6 1014.5 16.8 SSW 24.0 SSW 0.0 0.1
02:30 18.3 79.5 1014.4 17.5 SSW 24.4 SW 0.0 0.1
02:35 18.2 78.8 1014.5 17.5 SW 24.7 SSW 0.0 0.1
02:40 18.2 75.1 1014.4 21.8 SW 28.6 SW 0.0 0.1
02:45 18.0 75.9 1014.5 18.9 SW 25.4 SW 0.0 0.1
02:50 17.8 76.7 1014.6 18.1 SW 23.3 SW 0.0 0.1
02:55 17.6 76.8 1014.7 18.3 SW 24.7 SSW 0.0 0.1
03:00 17.4 78.7 1014.7 15.8 SW 24.7 SW 0.0 0.1
03:05 17.1 80.5 1014.6 19.6 SW 27.2 SW 0.1 0.1
03:10 16.7 82.2 1014.5 23.1 SW 32.1 SW 0.0 0.1
03:15 16.5 82.8 1014.3 21.7 SW 31.8 SSW 0.1 0.1
03:20 16.2 83.6 1014.4 20.6 SW 32.8 SW 0.3 0.1
03:25 16.0 84.8 1014.6 18.3 SW 28.6 SW 0.1 0.1
03:30 15.6 88.0 1014.6 15.1 WSW 20.1 WSW 0.2 0.1
03:35 15.5 88.8 1014.4 17.5 SW 27.5 SW 0.0 0.1
03:40 15.8 86.5 1014.4 18.2 SSW 24.7 SW 0.0 0.1
03:45 15.7 87.5 1014.6 16.2 SW 20.5 SSW 0.0 0.1
03:50 15.7 87.1 1014.7 16.3 SW 20.5 SW 0.0 0.1
03:55 15.5 88.8 1014.6 20.8 SW 27.2 SSW 0.0 0.1
04:00 15.4 88.5 1014.5 23.2 SW 30.0 SW 0.0 0.1
04:05 15.5 87.7 1014.3 26.8 SW 34.6 SW 0.0 0.1
04:10 15.5 87.1 1014.2 23.2 SSW 32.1 SW 0.0 0.1
04:15 15.3 88.2 1014.4 21.1 SW 29.3 SW 0.0 0.1
04:20 15.4 87.5 1014.5 18.2 SW 26.8 SW 0.0 0.1
04:25 15.4 87.8 1014.2 14.4 SSW 20.1 SSW 0.0 0.1
04:30 15.2 90.1 1014.3 6.2 W 13.4 SW 0.0 0.1
04:35 15.0 91.2 1014.5 6.8 WSW 12.4 WSW 0.0 0.1
04:40 15.1 90.0 1014.6 11.5 SW 15.5 SW 0.0 0.2
04:45 15.1 90.2 1014.4 16.0 SW 20.8 SSW 0.0 0.4
04:50 15.0 90.5 1014.5 15.3 SW 20.5 SSW 0.0 0.8
04:55 14.9 91.2 1014.5 15.2 SW 19.4 WSW 0.0 1.3
05:00 14.8 92.0 1014.5 14.4 SW 20.1 SW 0.0 2.0
05:05 14.8 92.1 1014.5 11.5 WSW 20.1 SW 0.0 3.2
05:10 14.8 92.8 1014.6 10.0 SW 13.8 SSW 0.0 4.7
05:15 14.7 92.9 1014.6 9.7 SW 13.1 SW 0.0 6.7
05:20 14.7 92.8 1014.5 8.6 SW 12.0 SW 0.0 8.9
05:25 14.8 92.1 1014.3 6.6 SSW 10.3 SSW 0.0 12.6
05:30 14.9 89.4 1014.4 9.9 SSW 13.4 SSW 0.0 15.4
05:35 15.1 88.4 1014.5 10.9 SSW 15.5 SW 0.0 17.4
05:40 15.1 89.1 1014.8 8.9 WSW 14.5 SSW 0.0 18.7
05:45 15.0 89.7 1015.0 6.8 WSW 12.4 WSW 0.0 21.6
05:50 15.1 88.4 1014.9 6.8 WSW 11.3 SW 0.0 22.3
05:55 15.2 86.9 1014.9 7.3 SW 9.5 SW 0.0 21.9
06:00 15.3 87.8 1014.6 7.4 S 10.6 SSE 0.0 22.3
06:05 15.2 88.6 1014.7 5.6 SW 8.5 SW 0.0 25.6
06:10 15.4 87.0 1014.8 5.4 SW 8.1 SW 0.0 34.7
06:15 15.4 87.0 1015.1 4.1 WSW 7.8 W 0.0 46.4
06:20 15.4 86.7 1015.0 6.2 SW 9.5 WSW 0.0 58.3
06:25 15.5 86.7 1014.9 6.3 SSW 10.3 S 0.0 70.3
06:30 15.5 86.8 1014.9 8.3 SSW 13.1 SSW 0.0 70.2
06:35 15.7 84.0 1014.9 9.2 SW 13.8 SW 0.0 66.8
06:40 15.6 85.9 1014.9 9.3 WSW 12.7 WSW 0.0 79.6
06:45 15.5 85.7 1014.9 11.6 SW 15.9 SW 0.0 82.7
06:50 15.5 86.9 1014.9 10.8 SW 14.8 SW 0.0 115.2
06:55 15.5 86.1 1014.9 5.2 WSW 8.1 WSW 0.0 95.0
07:00 15.6 85.1 1014.9 2.9 WSW 5.0 SW 0.0 93.2
07:05 15.8 82.8 1015.0 0.9 N 3.5 WNW 0.0 223.3
07:10 16.3 85.1 1015.1 3.3 NE 6.0 NE 0.0 371.4
07:15 16.7 85.9 1015.1 3.8 ENE 7.4 NE 0.0 377.9
07:20 16.9 84.0 1015.1 1.5 ENE 5.7 ENE 0.0 398.1
07:25 17.1 80.9 1015.3 5.1 SW 9.9 SW 0.0 447.5
07:30 17.2 80.3 1015.3 5.6 SW 8.8 WSW 0.0 456.8
07:35 17.0 79.2 1015.3 8.0 SW 12.0 SW 0.0 483.7
07:40 17.0 79.4 1015.3 11.8 SSW 14.5 SSW 0.0 500.5
07:45 17.0 79.7 1015.3 10.3 SW 13.1 SSW 0.0 465.4
07:50 17.1 79.6 1015.2 10.8 SW 13.8 SSW 0.0 525.9
07:55 17.0 78.4 1015.2 9.9 SSW 13.1 SW 0.0 540.9
08:00 17.2 77.4 1015.2 9.2 SW 12.0 SSW 0.0 558.2
08:05 17.5 77.2 1015.3 8.9 SW 14.1 SW 0.0 582.3
08:10 17.5 78.5 1015.3 9.8 SW 13.4 SW 0.0 610.9
08:15 17.9 78.8 1015.3 8.4 SW 12.7 WSW 0.0 645.7
08:20 17.9 77.4 1015.2 8.0 SW 11.7 SW 0.0 648.1
08:25 18.1 77.5 1015.3 7.0 SW 12.7 WSW 0.0 673.2
08:30 18.1 77.1 1015.3 8.9 SSW 15.5 SSW 0.0 728.7
08:35 18.1 77.8 1015.3 12.3 SSW 16.2 SW 0.0 721.1
08:40 18.2 77.9 1015.3 12.9 SW 17.3 SW 0.0 748.5
08:45 18.4 77.1 1015.3 13.8 SW 17.7 SW 0.0 568.1
08:50 17.8 77.5 1015.3 11.8 SW 15.2 SW 0.0 347.7
08:55 17.9 77.5 1015.3 10.0 SSW 15.2 SW 0.0 505.6
09:00 18.2 77.0 1015.4 10.9 SSW 17.0 SW 0.0 585.6
09:05 18.4 77.0 1015.4 10.3 SSW 16.2 SSW 0.0 661.7
09:10 18.7 75.4 1015.3 10.6 SW 15.5 SSW 0.0 515.3
09:15 18.6 75.8 1015.4 10.9 SW 15.5 SSW 0.0 624.7
09:20 19.2 73.6 1015.4 10.6 SW 14.5 WSW 0.0 809.0
09:25 19.5 73.5 1015.4 8.2 WSW 14.1 SSW 0.0 802.0
09:30 19.8 69.7 1015.4 10.7 SW 16.2 SW 0.0 816.0
09:35 19.5 68.7 1015.5 9.6 SSW 13.4 WSW 0.0 651.3
09:40 19.6 65.7 1015.5 8.1 SSW 13.8 SW 0.0 776.1
09:45 19.5 65.6 1015.5 13.4 SW 19.4 WSW 0.0 637.6
09:50 19.8 64.8 1015.5 9.9 SSW 20.1 SW 0.0 701.3
09:55 19.9 64.0 1015.4 11.3 SSW 19.1 SW 0.0 832.0
10:00 20.4 63.7 1015.5 8.8 SSW 17.3 SW 0.0 769.9
10:05 20.6 62.4 1015.5 10.4 SSW 18.0 SW 0.0 717.4
10:10 20.3 62.8 1015.5 6.9 SW 11.3 SW 0.0 450.2
10:15 20.6 60.5 1015.5 8.7 SW 17.3 SSW 0.0 754.8
10:20 20.6 59.8 1015.5 7.0 SSW 14.1 SW 0.0 908.0
10:25 21.1 56.6 1015.4 5.9 WSW 12.7 SSW 0.0 667.2
10:30 21.0 55.9 1015.4 8.1 SW 14.8 SW 0.0 737.4
10:35 21.0 57.6 1015.4 5.9 SW 12.7 WSW 0.0 393.8
10:40 20.8 56.4 1015.4 5.8 S 11.3 SW 0.0 462.6
10:45 21.1 58.1 1015.4 4.6 ESE 9.2 ESE 0.0 472.3
10:50 22.1 62.0 1015.4 7.8 E 16.2 ESE 0.0 857.0
10:55 21.4 64.1 1015.4 5.7 SE 12.4 SE 0.0 167.7
11:00 20.8 68.1 1015.4 6.7 E 11.7 E 0.0 173.2
11:05 20.6 68.1 1015.4 12.0 ENE 16.6 ENE 0.0 422.7
11:10 21.1 66.8 1015.4 10.2 ENE 14.8 ENE 0.0 400.9
11:15 21.0 67.0 1015.4 9.4 ENE 15.5 ENE 0.0 214.6
11:20 20.7 67.6 1015.3 10.1 ENE 14.1 ENE 0.0 248.9
11:25 20.8 68.2 1015.3 10.1 ENE 16.6 NE 0.0 822.0
11:30 21.7 65.5 1015.4 10.1 ENE 14.5 ENE 0.0 673.7
11:35 22.6 64.3 1015.4 10.1 E 15.9 E 0.0 1132.0
11:40 23.6 59.3 1015.3 12.9 E 18.4 ESE 0.0 912.0
11:45 22.6 60.3 1015.3 11.4 E 17.7 ENE 0.0 395.4
11:50 22.4 61.5 1015.3 13.8 E 20.1 E 0.0 442.4
11:55 22.3 60.1 1015.3 11.3 ESE 17.7 E 0.0 448.8
12:00 22.6 62.7 1015.3 10.4 ESE 18.7 E 0.0 1133.0
12:05 23.6 57.9 1015.3 11.7 E 19.4 ESE 0.0 715.5
12:10 23.1 59.3 1015.1 12.0 E 17.3 ESE 0.0 230.4
12:15 23.0 59.7 1015.1 9.1 ESE 17.0 E 0.0 967.0
12:20 22.6 58.3 1015.1 10.1 SE 20.1 ESE 0.0 590.9
12:25 22.9 59.6 1015.0 11.4 E 18.0 E 0.0 480.4
12:30 22.9 59.5 1015.0 11.4 E 18.0 E 0.0 492.0
12:35 22.5 59.9 1014.9 12.0 ENE 19.1 ENE 0.0 518.9
12:40 22.6 62.2 1014.8 9.7 NE 20.1 ENE 0.0 1039.0
12:45 23.6 59.5 1014.8 11.4 E 19.4 ENE 0.0 811.0
12:50 23.9 54.7 1014.8 7.2 E 14.8 E 0.0 262.2
12:55 23.5 57.4 1014.8 5.3 ENE 11.0 NNE 0.0 767.9
13:00 23.6 57.6 1014.8 4.7 NE 11.7 NE 0.0 456.4
13:05 23.0 58.7 1014.8 5.5 ENE 12.4 NNE 0.0 285.3
13:10 22.9 58.7 1014.8 6.3 E 13.4 ENE 0.0 318.4
13:15 23.2 58.3 1014.8 3.7 E 8.5 SSE 0.0 493.7
13:20 23.4 56.3 1014.7 7.4 SSE 17.3 SSE 0.0 542.8
13:25 23.2 56.9 1014.6 9.4 SSE 17.7 SSE 0.0 1022.0
13:30 23.6 55.7 1014.7 8.4 S 14.5 SSE 0.0 878.0
13:35 23.3 55.9 1014.6 7.6 SSE 15.9 SSE 0.0 512.8
13:40 23.3 55.5 1014.6 7.3 S 16.6 SSE 0.0 646.3
13:45 22.9 57.0 1014.6 6.5 SSE 13.1 ESE 0.0 412.3
13:50 22.9 57.1 1014.5 10.1 SSE 19.8 SE 0.0 277.0
13:55 22.2 58.1 1014.5 8.6 SE 17.7 SE 0.0 209.8
14:00 21.9 58.9 1014.4 12.0 SE 23.0 SSE 0.0 170.6
14:05 21.6 60.1 1014.4 8.5 SE 14.8 S 0.0 170.7
14:10 21.7 59.9 1014.3 5.6 SSE 14.8 SSE 0.0 192.8
14:15 21.7 59.8 1014.2 6.6 ESE 16.2 ESE 0.0 192.2
14:20 21.6 60.1 1014.2 8.4 SSE 16.2 SSE 0.0 191.0
14:25 21.4 60.9 1014.3 8.8 SSE 17.3 SSE 0.0 149.9
14:30 21.1 63.7 1014.3 10.2 ESE 20.5 ESE 0.0 115.9
14:35 21.1 64.9 1014.3 8.5 SE 15.9 SSE 0.0 117.5
14:40 20.8 65.9 1014.2 10.8 SE 15.2 SSE 0.0 146.7
14:45 21.0 67.0 1014.2 7.8 ESE 13.4 E 0.0 212.5
14:50 21.2 67.5 1014.2 8.3 SE 17.0 ESE 0.0 217.8
14:55 21.1 68.0 1014.2 8.7 ESE 14.8 SSE 0.0 183.9
15:00 21.0 68.5 1014.2 9.9 SE 19.8 ESE 0.0 179.8
15:05 21.0 69.3 1014.1 6.0 SE 12.4 SSE 0.0 188.4
15:10 20.9 69.6 1014.1 9.6 SE 16.2 SSE 0.0 191.0
15:15 20.9 70.7 1014.1 6.0 SE 10.6 ESE 0.0 177.4
15:20 20.9 70.3 1014.1 7.6 SE 15.5 SE 0.0 164.6
15:25 21.0 70.5 1014.0 8.7 ESE 15.9 ESE 0.0 170.5
15:30 20.8 71.0 1014.1 7.3 ESE 12.0 E 0.0 140.6
15:35 20.8 70.3 1014.1 6.5 SE 11.7 SSE 0.0 127.5
15:40 20.8 70.1 1014.2 4.4 ESE 11.3 ENE 0.0 158.0
15:45 21.0 69.4 1014.2 3.9 ENE 11.0 ENE 0.0 242.8
15:50 21.3 69.4 1014.2 8.8 E 17.0 E 0.0 289.5
15:55 21.5 67.8 1014.1 7.5 ENE 14.1 NE 0.0 209.8
16:00 21.2 69.3 1014.1 13.6 ENE 23.3 ENE 0.0 232.2
16:05 20.9 70.8 1014.1 10.4 ENE 15.2 NE 0.0 193.7
16:10 21.0 71.3 1014.2 12.3 E 20.5 E 0.0 152.3
16:15 20.6 72.4 1014.3 12.7 ENE 20.5 ENE 0.0 114.2
16:20 20.1 74.2 1014.4 10.6 NE 23.3 NE 0.0 87.0
16:25 19.9 75.5 1014.4 5.1 E 13.1 ESE 0.0 159.2
16:30 20.4 75.3 1014.4 7.6 NE 16.2 NNE 0.0 416.3
16:35 20.9 73.1 1014.4 10.0 NE 18.0 NNE 0.0 339.9
16:40 20.8 73.5 1014.3 9.5 NNE 16.6 N 0.0 279.5
16:45 20.5 72.8 1014.3 6.3 NE 15.2 NE 0.0 138.1
16:50 20.4 72.8 1014.3 4.8 ENE 9.9 E 0.0 151.3
16:55 20.5 72.0 1014.3 5.4 SE 11.3 SSE 0.0 324.1
17:00 21.1 70.4 1014.3 5.0 ESE 11.0 ESE 0.0 334.9
17:05 21.3 67.8 1014.3 10.0 ESE 15.5 SE 0.0 359.4
17:10 20.9 68.7 1014.2 8.0 ESE 16.2 SE 0.0 278.7
17:15 21.1 68.5 1014.2 6.9 SE 14.1 ESE 0.0 148.8
17:20 20.7 68.7 1014.2 5.1 SSE 12.4 SE 0.0 213.9
17:25 20.9 67.9 1014.2 4.6 SE 7.8 ESE 0.0 234.8
17:30 21.1 66.4 1014.2 4.8 SSE 9.2 SE 0.0 169.1
17:35 20.8 68.7 1014.2 3.4 ESE 9.2 SSE 0.0 89.9
17:40 20.7 68.3 1014.2 4.5 ESE 13.4 SE 0.0 64.9
17:45 20.1 69.9 1014.3 7.7 SE 11.7 S 0.0 56.2
17:50 19.9 72.1 1014.3 4.9 NNE 8.8 E 0.0 45.8
17:55 19.7 71.9 1014.2 4.3 NE 7.1 NE 0.0 47.7
18:00 19.8 73.2 1014.2 4.1 ENE 6.7 NE 0.0 39.6
18:05 19.8 73.2 1014.2 4.0 ENE 7.1 NE 0.0 42.4
18:10 19.8 73.7 1014.3 5.8 ENE 8.1 E 0.0 37.5
18:15 19.7 73.5 1014.3 7.3 ENE 11.0 ENE 0.0 38.7
18:20 19.5 74.6 1014.3 6.3 NE 9.9 NE 0.0 30.9
18:25 19.4 77.2 1014.3 7.2 NE 9.9 NE 0.0 29.9
18:30 19.2 80.0 1014.3 6.0 NE 9.2 NE 0.0 29.9
18:35 19.1 81.2 1014.4 3.9 NE 10.3 NE 0.0 17.4
18:40 19.1 82.4 1014.5 4.8 ENE 6.4 ENE 0.0 11.0
18:45 19.0 82.3 1014.5 2.4 ENE 5.7 NE 0.0 8.2
18:50 19.0 81.1 1014.5 1.5 SSE 3.5 SSE 0.0 7.8
18:55 19.0 81.7 1014.5 1.0 SSW 4.2 SSW 0.0 5.9
19:00 19.0 82.0 1014.5 1.3 SSW 4.2 SSW 0.0 2.6
19:05 18.9 81.8 1014.5 4.6 SSW 7.1 S 0.0 1.7
19:10 18.9 82.5 1014.5 3.5 SW 5.3 SSW 0.0 1.0
19:15 18.8 82.9 1014.6 3.5 SW 6.0 SW 0.0 0.5
19:20 18.8 82.9 1014.6 3.7 SW 5.3 SW 0.0 0.3
19:25 18.9 82.8 1014.6 0.1 SSW 1.4 SW 0.0 0.2
19:30 18.9 82.4 1014.6 0.0 NNE 0.0 SSW 0.0 0.1
19:35 18.9 82.1 1014.8 0.0 NNE 0.0 NNW 0.0 0.1
19:40 18.8 83.4 1014.9 2.8 NNE 5.3 N 0.0 0.1
19:45 18.6 85.5 1014.9 6.0 NE 8.8 NE 0.0 0.1
19:50 18.5 86.9 1015.0 4.3 NNE 8.5 NE 0.0 0.1
19:55 18.4 87.8 1015.0 2.7 E 8.5 ENE 0.0 0.1
Màxima 24.1 92.9 1015.6 26.8 SW 34.6 SW 0.3 1133.0
Mínima 14.7 54.7 1014.0
Total 0.8